ESOK/KSD METAR and TAF weather

Enter ICAO airport designator
Station Type Date Time Source
ESOK METAR 2018/04/21 20:50 UTC NOAA

ESOK 212050Z AUTO 28005KT 9999 NCD 09/M00 Q1013


Station Type Date Time Source
ESOK Decoded METAR 2018/04/21 20:50 UTC NOAA

Karlstad , Sweden (ESOK) 59-26-41N 013-20-15E
Apr 21, 2018 - 04:50 PM EDT / 2018.04.21 2050 UTC
Wind: from the W (280 degrees) at 6 MPH (5 KT):0
Visibility: greater than 7 mile(s):0
Temperature: 48 F (9 C)
Dew Point: 32 F (0 C)
Relative Humidity: 53%
Pressure (altimeter): 29.91 in. Hg (1013 hPa)
ob: ESOK 212050Z AUTO 28005KT 9999 NCD 09/M00 Q1013
cycle: 21

Station Type Date Time Source
ESOK TAF 2017/05/22 06:33 UTC NOAA

TAF ESOK 220530Z 2206/2224 28006KT CAVOK


Example: see airport list